Time;durP1;ratioP1;P1;durP2;ratioP2;P2;SDS_P1;SDS_P2;PMS_P1;PMS_P2;Temp;Humidity;BMP_temperature;BMP_pressure;BME280_temperature;BME280_humidity;BME280_pressure;Samples;Min_cycle;Max_cycle;Signal;HPM_P1;HPM_P2
2022/03/20 00:00:08;;;;;;;;;;;8.90;52.30;;;;;;5050444;28;20391;-64
2022/03/20 00:02:34;;;;;;;;;;;8.80;52.10;;;;;;5050688;28;19913;-64
2022/03/20 00:05:03;;;;;;;;;;;8.80;52.50;;;;;;5050710;28;19999;-64
2022/03/20 00:07:29;;;;;;;;;;;8.80;52.60;;;;;;5050518;28;19912;-63
2022/03/20 00:09:54;;;;;;;;;;;8.80;52.60;;;;;;5050480;28;20035;-62
2022/03/20 00:12:20;;;;;;;;;;;8.80;52.70;;;;;;5050583;28;20469;-65
2022/03/20 00:14:46;;;;;;;;;;;8.70;52.60;;;;;;5050293;28;20282;-63
2022/03/20 00:17:13;;;;;;;;;;;8.70;53.00;;;;;;5050638;28;19956;-64
2022/03/20 00:19:39;;;;;;;;;;;8.70;53.10;;;;;;5050365;28;19908;-63
2022/03/20 00:22:05;;;;;;;;;;;8.50;52.80;;;;;;5050724;28;20261;-63
2022/03/20 00:24:30;;;;;;;;;;;8.40;53.20;;;;;;5050360;28;20003;-64
2022/03/20 00:27:00;;;;;;;;;;;8.40;53.30;;;;;;5050042;28;20344;-63
2022/03/20 00:29:26;;;;;;;;;;;8.40;53.40;;;;;;5050554;28;19929;-63
2022/03/20 00:31:52;;;;;;;;;;;8.50;53.40;;;;;;5050107;28;19921;-64
2022/03/20 00:34:18;;;;;;;;;;;8.40;53.30;;;;;;5050884;28;19912;-64
2022/03/20 00:36:43;;;;;;;;;;;8.40;53.40;;;;;;5051650;28;19959;-63
2022/03/20 00:39:09;;;;;;;;;;;8.40;53.60;;;;;;5050185;28;19913;-64
2022/03/20 00:41:34;;;;;;;;;;;8.40;53.80;;;;;;5082201;28;19919;-64
2022/03/20 00:44:00;;;;;;;;;;;8.40;53.70;;;;;;5050140;28;20390;-64
2022/03/20 00:46:27;;;;;;;;;;;8.40;53.90;;;;;;5054651;28;19941;-63
2022/03/20 00:48:53;;;;;;;;;;;8.40;53.60;;;;;;5053804;28;20347;-64
2022/03/20 00:51:18;;;;;;;;;;;8.30;53.80;;;;;;5053694;28;19912;-63
2022/03/20 00:53:44;;;;;;;;;;;8.10;53.90;;;;;;5053869;28;19946;-66
2022/03/20 00:56:09;;;;;;;;;;;8.10;54.30;;;;;;5053514;28;19921;-66
2022/03/20 00:58:35;;;;;;;;;;;8.00;54.40;;;;;;5054632;28;19913;-65
2022/03/20 01:01:00;;;;;;;;;;;8.10;54.20;;;;;;5054028;28;19913;-65
2022/03/20 01:03:26;;;;;;;;;;;8.30;54.50;;;;;;5054091;28;19913;-65
2022/03/20 01:05:52;;;;;;;;;;;8.30;54.40;;;;;;5053566;28;20285;-64
2022/03/20 01:08:18;;;;;;;;;;;8.20;54.10;;;;;;5053665;28;19913;-65
2022/03/20 01:10:44;;;;;;;;;;;8.10;54.40;;;;;;5053525;28;20016;-64
2022/03/20 01:13:09;;;;;;;;;;;8.10;54.30;;;;;;5054335;28;19952;-65
2022/03/20 01:15:35;;;;;;;;;;;8.20;54.10;;;;;;5053223;28;19963;-64
2022/03/20 01:18:00;;;;;;;;;;;8.10;54.00;;;;;;5053377;28;19912;-62
2022/03/20 01:20:26;;;;;;;;;;;8.20;54.60;;;;;;5053332;28;19919;-65
2022/03/20 01:22:52;;;;;;;;;;;8.20;54.20;;;;;;5053771;28;19935;-64
2022/03/20 01:25:18;;;;;;;;;;;8.00;54.40;;;;;;5054624;28;19916;-66
2022/03/20 01:27:44;;;;;;;;;;;8.00;54.70;;;;;;5053423;28;19919;-64
2022/03/20 01:30:10;;;;;;;;;;;8.00;54.70;;;;;;5052861;28;20007;-63
2022/03/20 01:32:35;;;;;;;;;;;7.90;54.70;;;;;;5053458;28;19913;-65
2022/03/20 01:35:01;;;;;;;;;;;7.90;55.00;;;;;;5052838;28;19912;-63
2022/03/20 01:37:26;;;;;;;;;;;7.80;54.80;;;;;;5054323;28;19908;-64
2022/03/20 01:39:52;;;;;;;;;;;7.80;55.10;;;;;;5053227;28;19955;-65
2022/03/20 01:42:19;;;;;;;;;;;7.90;55.20;;;;;;5052933;28;20357;-64
2022/03/20 01:44:45;;;;;;;;;;;7.80;55.20;;;;;;5053202;28;19987;-62
2022/03/20 01:47:10;;;;;;;;;;;7.80;55.40;;;;;;5053205;28;19913;-63
2022/03/20 01:49:36;;;;;;;;;;;7.80;55.60;;;;;;5052829;28;19925;-64
2022/03/20 01:52:13;;;;;;;;;;;7.60;55.80;;;;;;5053768;28;20141;-65
2022/03/20 01:54:44;;;;;;;;;;;7.60;55.70;;;;;;5053375;28;20337;-65
2022/03/20 01:57:12;;;;;;;;;;;7.70;55.80;;;;;;5051336;28;19921;-64
2022/03/20 01:59:38;;;;;;;;;;;7.70;55.60;;;;;;5052787;28;19919;-64
2022/03/20 02:02:04;;;;;;;;;;;7.80;55.40;;;;;;5052638;28;19921;-64
2022/03/20 02:04:30;;;;;;;;;;;7.70;55.80;;;;;;5052754;28;20000;-64
2022/03/20 02:06:56;;;;;;;;;;;7.80;56.20;;;;;;5053515;28;20035;-62
2022/03/20 02:09:21;;;;;;;;;;;7.70;55.90;;;;;;5052648;28;20019;-64
2022/03/20 02:11:47;;;;;;;;;;;7.60;56.20;;;;;;5052510;28;20354;-61
2022/03/20 02:14:13;;;;;;;;;;;7.60;56.50;;;;;;5052745;28;19978;-63
2022/03/20 02:16:39;;;;;;;;;;;7.50;56.30;;;;;;5052594;28;20403;-64
2022/03/20 02:19:06;;;;;;;;;;;7.50;56.50;;;;;;5052736;28;19919;-62
2022/03/20 02:21:42;;;;;;;;;;;7.50;56.20;;;;;;5052513;28;20066;-62
2022/03/20 02:24:26;;;;;;;;;;;7.50;56.70;;;;;;5052254;28;19917;-63
2022/03/20 02:27:01;;;;;;;;;;;7.40;57.00;;;;;;5052540;28;19913;-63
2022/03/20 02:29:26;;;;;;;;;;;7.30;57.60;;;;;;5051959;28;19951;-63
2022/03/20 02:31:52;;;;;;;;;;;7.30;57.80;;;;;;5050806;28;20357;-64
2022/03/20 02:34:17;;;;;;;;;;;7.30;57.30;;;;;;5052493;28;19983;-61
2022/03/20 02:36:43;;;;;;;;;;;7.30;57.70;;;;;;5052028;28;19913;-60
2022/03/20 02:39:08;;;;;;;;;;;7.20;57.90;;;;;;5052496;28;19980;-63
2022/03/20 02:41:34;;;;;;;;;;;7.20;57.80;;;;;;5051700;28;19923;-60
2022/03/20 02:44:02;;;;;;;;;;;7.20;58.00;;;;;;5052110;28;20027;-62
2022/03/20 02:46:28;;;;;;;;;;;7.20;58.10;;;;;;5052880;28;19909;-63
2022/03/20 02:48:54;;;;;;;;;;;7.30;58.00;;;;;;5051576;28;19928;-61
2022/03/20 02:51:20;;;;;;;;;;;7.30;58.10;;;;;;5052147;28;20010;-64
2022/03/20 02:53:45;;;;;;;;;;;7.20;58.50;;;;;;5051986;28;20377;-64
2022/03/20 02:56:11;;;;;;;;;;;7.10;58.60;;;;;;5051485;28;19967;-64
2022/03/20 02:58:36;;;;;;;;;;;7.20;58.70;;;;;;5051888;28;19952;-64
2022/03/20 03:01:02;;;;;;;;;;;7.10;59.10;;;;;;5052656;28;19909;-63
2022/03/20 03:03:27;;;;;;;;;;;7.00;59.50;;;;;;5050385;28;19945;-64
2022/03/20 03:05:58;;;;;;;;;;;6.90;59.80;;;;;;5051737;28;20397;-61
2022/03/20 03:11:08;;;;;;;;;;;6.80;60.30;;;;;;5037866;28;19920;-63
2022/03/20 03:13:34;;;;;;;;;;;6.80;60.10;;;;;;5051749;28;19964;-61
2022/03/20 03:16:01;;;;;;;;;;;6.90;59.90;;;;;;5051817;28;19908;-64
2022/03/20 03:18:27;;;;;;;;;;;6.80;60.60;;;;;;5051286;28;20328;-64
2022/03/20 03:20:53;;;;;;;;;;;6.70;61.10;;;;;;5051455;28;19923;-64
2022/03/20 03:23:24;;;;;;;;;;;6.80;60.70;;;;;;5051195;28;20008;-64
2022/03/20 03:25:50;;;;;;;;;;;6.80;61.20;;;;;;5051115;28;19927;-64
2022/03/20 03:28:16;;;;;;;;;;;6.80;60.90;;;;;;5051940;28;19968;-64
2022/03/20 03:30:43;;;;;;;;;;;6.90;60.90;;;;;;5050553;28;19924;-64
2022/03/20 03:33:09;;;;;;;;;;;6.80;60.80;;;;;;5051022;28;19951;-63
2022/03/20 03:35:51;;;;;;;;;;;6.70;61.90;;;;;;5050739;28;20031;-65
2022/03/20 03:38:17;;;;;;;;;;;6.70;61.60;;;;;;5051230;28;19921;-64
2022/03/20 03:40:44;;;;;;;;;;;6.60;62.20;;;;;;5050804;28;19996;-62
2022/03/20 03:43:10;;;;;;;;;;;6.50;62.80;;;;;;5049434;28;19962;-63
2022/03/20 03:45:35;;;;;;;;;;;6.50;63.20;;;;;;5050748;28;19917;-65
2022/03/20 03:48:02;;;;;;;;;;;6.50;63.10;;;;;;5050817;28;19913;-65
2022/03/20 03:50:28;;;;;;;;;;;6.50;63.00;;;;;;5050982;28;19920;-64
2022/03/20 03:52:53;;;;;;;;;;;6.40;62.70;;;;;;5050878;28;20271;-64
2022/03/20 03:55:19;;;;;;;;;;;6.50;62.90;;;;;;5051495;28;19908;-65
2022/03/20 03:57:54;;;;;;;;;;;6.60;63.00;;;;;;5050563;28;20277;-64
2022/03/20 04:00:20;;;;;;;;;;;6.60;62.40;;;;;;5050293;28;19917;-64
2022/03/20 04:02:46;;;;;;;;;;;6.50;62.70;;;;;;5050594;28;19938;-64
2022/03/20 04:05:12;;;;;;;;;;;6.40;63.50;;;;;;5050876;28;19913;-64
2022/03/20 04:07:38;;;;;;;;;;;6.40;64.20;;;;;;5050903;28;19916;-65
2022/03/20 04:10:05;;;;;;;;;;;6.40;63.90;;;;;;5050971;28;20435;-65
2022/03/20 04:12:31;;;;;;;;;;;6.40;63.80;;;;;;5050216;28;19959;-65
2022/03/20 04:15:02;;;;;;;;;;;6.30;64.80;;;;;;5049998;28;19959;-64
2022/03/20 04:17:30;;;;;;;;;;;6.20;64.60;;;;;;5050919;28;19921;-64
2022/03/20 04:19:57;;;;;;;;;;;6.30;64.30;;;;;;5049548;28;19921;-62
2022/03/20 04:22:22;;;;;;;;;;;6.40;64.70;;;;;;5051152;28;20007;-66
2022/03/20 04:24:50;;;;;;;;;;;6.30;65.50;;;;;;5050047;28;19955;-63
2022/03/20 04:27:15;;;;;;;;;;;6.20;65.00;;;;;;5049933;28;19959;-63
2022/03/20 04:29:41;;;;;;;;;;;6.20;65.20;;;;;;5049819;28;19921;-65
2022/03/20 04:32:08;;;;;;;;;;;6.20;64.80;;;;;;5050492;28;19912;-64
2022/03/20 04:34:35;;;;;;;;;;;6.30;65.40;;;;;;5050681;28;20409;-62
2022/03/20 04:37:04;;;;;;;;;;;6.30;65.50;;;;;;5050734;28;19960;-66
2022/03/20 04:39:30;;;;;;;;;;;6.20;65.70;;;;;;5050022;28;19951;-63
2022/03/20 04:41:55;;;;;;;;;;;6.10;66.30;;;;;;5050230;28;19964;-65
2022/03/20 04:44:22;;;;;;;;;;;6.10;67.20;;;;;;5049875;28;19913;-66
2022/03/20 04:46:47;;;;;;;;;;;6.10;66.40;;;;;;5050146;28;19916;-63
2022/03/20 05:00:09;;;;;;;;;;;6.00;68.10;;;;;;5049982;28;20051;-63
2022/03/20 05:02:35;;;;;;;;;;;6.00;67.70;;;;;;5050414;28;20391;-63
2022/03/20 05:05:00;;;;;;;;;;;6.00;68.00;;;;;;5050255;28;20342;-63
2022/03/20 05:07:26;;;;;;;;;;;6.00;68.40;;;;;;5050765;28;19909;-62
2022/03/20 05:15:19;;;;;;;;;;;5.90;68.50;;;;;;5050190;28;20423;-64
2022/03/20 05:17:45;;;;;;;;;;;5.90;68.20;;;;;;5049476;28;19916;-61
2022/03/20 05:20:11;;;;;;;;;;;6.00;68.90;;;;;;5050016;28;19917;-64
2022/03/20 05:22:37;;;;;;;;;;;6.00;67.70;;;;;;5049979;28;19909;-65
2022/03/20 05:25:05;;;;;;;;;;;6.00;68.60;;;;;;5050140;28;19936;-63
2022/03/20 05:27:30;;;;;;;;;;;5.90;68.10;;;;;;5049391;28;19912;-64
2022/03/20 05:29:56;;;;;;;;;;;5.90;68.60;;;;;;5050259;28;19931;-63
2022/03/20 05:32:23;;;;;;;;;;;5.90;69.70;;;;;;5052443;28;20396;-65
2022/03/20 05:34:48;;;;;;;;;;;5.90;69.60;;;;;;5053102;28;19916;-63
2022/03/20 05:37:14;;;;;;;;;;;5.60;71.00;;;;;;5054292;28;19909;-64
2022/03/20 05:39:40;;;;;;;;;;;5.60;70.50;;;;;;5053429;28;19916;-62
2022/03/20 05:42:06;;;;;;;;;;;5.60;71.20;;;;;;5052692;28;20274;-64
2022/03/20 05:44:33;;;;;;;;;;;5.60;71.70;;;;;;5053324;28;19912;-62
2022/03/20 05:46:59;;;;;;;;;;;5.70;70.60;;;;;;5037481;28;19913;-64
2022/03/20 05:49:25;;;;;;;;;;;5.80;69.40;;;;;;5054116;28;19917;-64
2022/03/20 05:51:51;;;;;;;;;;;5.70;70.30;;;;;;5052498;28;19917;-64
2022/03/20 05:54:17;;;;;;;;;;;5.70;70.90;;;;;;5053626;28;20003;-64
2022/03/20 05:59:27;;;;;;;;;;;5.60;71.70;;;;;;5052737;28;19939;-62
2022/03/20 06:01:52;;;;;;;;;;;5.60;71.20;;;;;;5052777;28;20387;-65
2022/03/20 06:04:18;;;;;;;;;;;5.50;71.60;;;;;;5053631;28;20266;-65
2022/03/20 06:06:44;;;;;;;;;;;5.60;72.00;;;;;;5052620;28;19917;-64
2022/03/20 06:09:10;;;;;;;;;;;5.70;71.50;;;;;;5052883;28;19927;-64
2022/03/20 06:11:36;;;;;;;;;;;5.70;71.10;;;;;;5052104;28;20338;-63
2022/03/20 06:14:03;;;;;;;;;;;5.70;70.80;;;;;;5052561;28;19959;-63
2022/03/20 06:16:28;;;;;;;;;;;5.70;71.40;;;;;;5053560;28;19931;-64
2022/03/20 06:18:54;;;;;;;;;;;5.70;71.50;;;;;;5052318;28;20294;-63
2022/03/20 06:21:20;;;;;;;;;;;5.60;71.70;;;;;;5052640;28;19913;-65
2022/03/20 06:23:45;;;;;;;;;;;5.60;71.20;;;;;;5052248;28;19912;-64
2022/03/20 06:26:11;;;;;;;;;;;5.60;71.90;;;;;;5051753;28;19967;-63
2022/03/20 06:28:40;;;;;;;;;;;5.70;71.60;;;;;;5050950;28;19913;-64
2022/03/20 06:31:09;;;;;;;;;;;5.60;72.30;;;;;;5052472;28;19913;-64
2022/03/20 06:33:35;;;;;;;;;;;5.70;72.40;;;;;;5051548;28;19917;-64
2022/03/20 06:36:01;;;;;;;;;;;5.70;72.30;;;;;;5051500;28;20003;-64
2022/03/20 06:38:26;;;;;;;;;;;5.50;72.90;;;;;;5051536;28;20043;-62
2022/03/20 06:40:52;;;;;;;;;;;5.60;72.50;;;;;;5051886;28;19920;-64
2022/03/20 06:43:17;;;;;;;;;;;5.70;72.20;;;;;;5051634;28;19909;-64
2022/03/20 06:45:43;;;;;;;;;;;5.80;72.20;;;;;;5051549;28;20030;-64
2022/03/20 06:48:08;;;;;;;;;;;5.80;71.90;;;;;;5051333;28;20400;-64
2022/03/20 06:50:34;;;;;;;;;;;5.80;71.80;;;;;;5051689;28;19925;-64
2022/03/20 06:53:04;;;;;;;;;;;5.80;72.90;;;;;;5051514;28;20420;-62
2022/03/20 06:55:30;;;;;;;;;;;5.80;72.80;;;;;;5048174;28;19975;-63
2022/03/20 06:57:57;;;;;;;;;;;5.80;72.70;;;;;;5051641;28;20362;-63
2022/03/20 07:00:23;;;;;;;;;;;5.90;72.00;;;;;;5050769;28;19916;-61
2022/03/20 07:02:48;;;;;;;;;;;6.00;72.30;;;;;;5050524;28;19916;-63
2022/03/20 07:05:14;;;;;;;;;;;6.00;72.60;;;;;;5046785;28;19913;-61
2022/03/20 07:07:40;;;;;;;;;;;6.00;72.00;;;;;;5049531;28;19913;-66
2022/03/20 07:10:07;;;;;;;;;;;6.10;72.70;;;;;;5040297;28;20286;-65
2022/03/20 07:12:33;;;;;;;;;;;6.20;73.30;;;;;;5045268;28;20012;-64
2022/03/20 07:14:59;;;;;;;;;;;6.30;72.30;;;;;;5048135;28;20619;-63
2022/03/20 07:17:25;;;;;;;;;;;6.30;72.00;;;;;;5048110;28;19924;-65
2022/03/20 07:19:50;;;;;;;;;;;6.30;71.70;;;;;;5050214;28;21435;-63
2022/03/20 07:22:16;;;;;;;;;;;6.30;71.70;;;;;;5051080;28;19921;-65
2022/03/20 07:24:43;;;;;;;;;;;6.40;71.60;;;;;;5048025;28;19951;-65
2022/03/20 07:29:53;;;;;;;;;;;6.20;73.00;;;;;;5047889;28;20356;-66
2022/03/20 07:32:19;;;;;;;;;;;6.20;73.50;;;;;;5049413;28;19913;-64
2022/03/20 07:34:45;;;;;;;;;;;6.30;73.80;;;;;;5048083;28;20291;-62
2022/03/20 07:37:16;;;;;;;;;;;6.40;73.10;;;;;;5048926;28;19994;-65
2022/03/20 07:39:42;;;;;;;;;;;6.30;72.90;;;;;;5049558;28;19971;-66
2022/03/20 07:42:08;;;;;;;;;;;6.30;73.20;;;;;;5048272;28;19935;-65
2022/03/20 07:44:35;;;;;;;;;;;6.30;73.40;;;;;;5048382;28;19921;-66
2022/03/20 07:47:00;;;;;;;;;;;6.30;73.70;;;;;;5050726;28;20441;-65
2022/03/20 07:49:26;;;;;;;;;;;6.20;73.90;;;;;;5047183;28;20019;-66
2022/03/20 07:51:53;;;;;;;;;;;6.30;74.00;;;;;;5050544;28;19916;-66
2022/03/20 07:54:18;;;;;;;;;;;6.40;72.70;;;;;;5047483;28;19917;-65
2022/03/20 07:56:45;;;;;;;;;;;6.50;73.00;;;;;;5038107;28;20020;-67
2022/03/20 07:59:11;;;;;;;;;;;6.50;72.80;;;;;;5044433;28;20047;-67
2022/03/20 08:01:37;;;;;;;;;;;6.50;72.70;;;;;;5049306;28;19943;-66
2022/03/20 08:04:03;;;;;;;;;;;6.40;73.30;;;;;;5064336;28;20298;-68
2022/03/20 08:06:29;;;;;;;;;;;6.40;73.60;;;;;;5048303;28;19920;-66
2022/03/20 08:08:57;;;;;;;;;;;6.40;73.30;;;;;;5043723;28;19916;-67
2022/03/20 08:11:22;;;;;;;;;;;6.40;73.60;;;;;;5048206;28;20302;-65
2022/03/20 08:13:48;;;;;;;;;;;6.50;73.40;;;;;;5048197;28;20023;-67
2022/03/20 08:16:15;;;;;;;;;;;6.60;73.50;;;;;;5050401;28;19917;-67
2022/03/20 08:18:43;;;;;;;;;;;6.70;72.80;;;;;;5047941;28;19916;-67
2022/03/20 08:21:11;;;;;;;;;;;6.80;72.70;;;;;;5047517;28;19975;-66
2022/03/20 08:23:38;;;;;;;;;;;6.80;72.50;;;;;;5047961;28;19940;-67
2022/03/20 08:26:03;;;;;;;;;;;6.90;72.20;;;;;;5047626;28;19925;-67
2022/03/20 08:28:28;;;;;;;;;;;6.80;73.40;;;;;;5049428;28;19968;-66
2022/03/20 08:30:54;;;;;;;;;;;6.70;73.40;;;;;;5045926;28;20470;-66
2022/03/20 08:33:20;;;;;;;;;;;6.80;73.40;;;;;;5047511;28;19917;-66
2022/03/20 08:35:45;;;;;;;;;;;6.80;72.90;;;;;;5047070;28;20346;-67
2022/03/20 08:38:11;;;;;;;;;;;6.90;73.20;;;;;;5047580;28;20259;-67
2022/03/20 08:40:36;;;;;;;;;;;7.00;73.40;;;;;;5048168;28;20011;-62
2022/03/20 08:43:04;;;;;;;;;;;7.00;72.60;;;;;;5047639;28;19919;-68
2022/03/20 08:45:31;;;;;;;;;;;7.10;72.50;;;;;;5047266;28;19912;-66
2022/03/20 08:47:57;;;;;;;;;;;7.10;72.70;;;;;;5047431;28;20378;-66
2022/03/20 08:50:23;;;;;;;;;;;7.20;72.90;;;;;;5047242;28;20386;-66
2022/03/20 08:52:49;;;;;;;;;;;7.30;72.60;;;;;;5047319;28;19919;-66
2022/03/20 08:55:15;;;;;;;;;;;7.30;72.50;;;;;;5047582;28;19946;-66
2022/03/20 08:57:41;;;;;;;;;;;7.40;72.20;;;;;;5046799;28;19974;-67
2022/03/20 09:00:08;;;;;;;;;;;7.40;72.00;;;;;;5047719;28;19920;-66
2022/03/20 09:02:34;;;;;;;;;;;7.50;72.20;;;;;;5046501;28;19975;-67
2022/03/20 09:04:59;;;;;;;;;;;7.50;71.90;;;;;;5047144;28;19944;-66
2022/03/20 09:07:25;;;;;;;;;;;7.50;71.80;;;;;;5051866;28;20385;-67
2022/03/20 09:09:50;;;;;;;;;;;7.60;72.00;;;;;;5051396;28;19966;-66
2022/03/20 09:12:16;;;;;;;;;;;7.60;71.70;;;;;;5051735;28;19920;-64
2022/03/20 09:14:41;;;;;;;;;;;7.60;71.50;;;;;;5050781;28;20033;-66
2022/03/20 09:19:55;;;;;;;;;;;7.50;71.90;;;;;;5050666;28;20405;-66
2022/03/20 09:22:20;;;;;;;;;;;7.60;71.80;;;;;;5053043;28;20396;-67
2022/03/20 09:24:46;;;;;;;;;;;7.70;72.20;;;;;;5050833;28;20007;-64
2022/03/20 09:27:12;;;;;;;;;;;7.70;71.40;;;;;;5050835;28;19909;-66
2022/03/20 09:29:37;;;;;;;;;;;7.80;71.50;;;;;;5050677;28;20050;-65
2022/03/20 09:32:03;;;;;;;;;;;7.80;71.40;;;;;;5051607;28;20400;-66
2022/03/20 09:34:32;;;;;;;;;;;7.90;71.70;;;;;;5052869;28;19996;-66
2022/03/20 09:36:58;;;;;;;;;;;7.90;71.30;;;;;;5051429;28;19962;-66
2022/03/20 09:39:25;;;;;;;;;;;7.90;71.10;;;;;;5051065;28;20011;-65
2022/03/20 09:41:51;;;;;;;;;;;8.00;70.90;;;;;;5050477;28;19913;-67
2022/03/20 09:44:18;;;;;;;;;;;8.00;71.00;;;;;;5049807;28;19943;-68
2022/03/20 09:46:44;;;;;;;;;;;8.10;71.40;;;;;;5051800;28;19912;-66
2022/03/20 09:49:10;;;;;;;;;;;8.10;71.00;;;;;;5051767;28;20395;-66
2022/03/20 09:51:35;;;;;;;;;;;8.20;70.90;;;;;;5050533;28;20055;-65
2022/03/20 09:54:01;;;;;;;;;;;8.20;71.00;;;;;;5050901;28;19935;-67
2022/03/20 09:56:27;;;;;;;;;;;8.30;71.00;;;;;;5050930;28;19927;-65
2022/03/20 09:58:53;;;;;;;;;;;8.30;70.40;;;;;;5050339;28;19971;-65
2022/03/20 10:01:19;;;;;;;;;;;8.30;70.00;;;;;;5052668;28;19916;-66
2022/03/20 10:03:46;;;;;;;;;;;8.40;70.40;;;;;;5050908;28;19956;-66
2022/03/20 10:06:20;;;;;;;;;;;8.30;69.80;;;;;;5050576;28;19927;-67
2022/03/20 10:08:58;;;;;;;;;;;8.30;70.50;;;;;;5050288;28;19996;-66
2022/03/20 10:11:25;;;;;;;;;;;8.40;69.60;;;;;;5047609;28;19962;-64
2022/03/20 10:14:10;;;;;;;;;;;8.30;70.00;;;;;;5049886;28;19928;-67
2022/03/20 10:16:37;;;;;;;;;;;8.40;69.40;;;;;;5050198;28;20289;-66
2022/03/20 10:19:20;;;;;;;;;;;8.60;70.50;;;;;;5050461;28;19958;-67
2022/03/20 10:21:46;;;;;;;;;;;8.70;69.70;;;;;;5050715;28;20392;-67
2022/03/20 10:24:18;;;;;;;;;;;8.70;69.80;;;;;;5049648;28;19912;-66
2022/03/20 10:26:45;;;;;;;;;;;8.70;68.90;;;;;;5050244;28;19923;-67
2022/03/20 10:29:16;;;;;;;;;;;8.80;68.30;;;;;;5050600;28;20019;-68
2022/03/20 10:31:49;;;;;;;;;;;8.80;68.80;;;;;;5049940;28;19962;-67
2022/03/20 10:34:15;;;;;;;;;;;8.90;68.30;;;;;;5052558;28;19933;-66
2022/03/20 10:36:43;;;;;;;;;;;8.90;68.30;;;;;;5050353;28;19912;-67
2022/03/20 10:39:16;;;;;;;;;;;8.90;67.80;;;;;;5049796;28;19917;-66
2022/03/20 10:41:43;;;;;;;;;;;8.90;67.60;;;;;;5049435;28;19913;-64
2022/03/20 10:44:14;;;;;;;;;;;9.00;68.70;;;;;;5050067;28;19966;-67
2022/03/20 10:46:40;;;;;;;;;;;9.00;65.60;;;;;;5050502;28;20925;-67
2022/03/20 10:49:06;;;;;;;;;;;8.90;65.30;;;;;;5050830;28;20369;-65
2022/03/20 10:51:39;;;;;;;;;;;8.90;65.70;;;;;;5050403;28;19959;-66
2022/03/20 10:54:04;;;;;;;;;;;9.00;65.40;;;;;;5048301;28;19924;-67
2022/03/20 10:56:30;;;;;;;;;;;9.00;65.10;;;;;;5049653;28;19925;-65
2022/03/20 10:58:56;;;;;;;;;;;9.20;64.20;;;;;;5049875;28;19913;-66
2022/03/20 11:01:37;;;;;;;;;;;9.10;62.10;;;;;;5050761;28;19939;-66
2022/03/20 11:04:04;;;;;;;;;;;9.10;62.20;;;;;;5050470;28;20366;-67
2022/03/20 11:06:29;;;;;;;;;;;9.00;61.80;;;;;;5049678;28;19917;-65
2022/03/20 11:08:56;;;;;;;;;;;9.10;62.70;;;;;;5049675;28;19981;-65
2022/03/20 11:11:23;;;;;;;;;;;9.20;59.10;;;;;;5049063;28;20401;-66
2022/03/20 11:13:50;;;;;;;;;;;9.30;61.20;;;;;;5050273;28;19996;-64
2022/03/20 11:16:20;;;;;;;;;;;9.30;61.20;;;;;;5049503;28;19913;-64
2022/03/20 11:18:48;;;;;;;;;;;9.40;59.70;;;;;;5049384;28;19920;-66
2022/03/20 11:21:16;;;;;;;;;;;9.40;60.80;;;;;;5049724;28;19909;-66
2022/03/20 11:23:43;;;;;;;;;;;9.40;60.90;;;;;;5045380;28;19960;-66
2022/03/20 11:26:10;;;;;;;;;;;9.40;61.30;;;;;;5049908;28;19913;-65
2022/03/20 11:28:42;;;;;;;;;;;9.40;58.60;;;;;;5049402;28;19913;-67
2022/03/20 11:31:07;;;;;;;;;;;9.50;60.00;;;;;;5050104;28;19975;-67
2022/03/20 11:33:33;;;;;;;;;;;9.70;60.80;;;;;;5049078;28;19913;-66
2022/03/20 11:36:00;;;;;;;;;;;9.90;61.40;;;;;;5048609;28;20647;-66
2022/03/20 11:38:25;;;;;;;;;;;9.90;61.40;;;;;;5049364;28;19920;-66
2022/03/20 11:41:04;;;;;;;;;;;10.10;59.70;;;;;;5048686;28;19917;-67
2022/03/20 11:43:30;;;;;;;;;;;10.20;59.20;;;;;;5048324;28;19985;-66
2022/03/20 11:46:19;;;;;;;;;;;10.20;60.40;;;;;;5048976;28;19913;-66
2022/03/20 11:49:04;;;;;;;;;;;10.20;61.20;;;;;;5049448;28;19917;-67
2022/03/20 11:51:48;;;;;;;;;;;10.20;60.70;;;;;;5046740;28;19923;-66
2022/03/20 11:54:14;;;;;;;;;;;10.10;59.90;;;;;;5040655;28;19974;-66
2022/03/20 11:56:39;;;;;;;;;;;10.10;59.00;;;;;;5048285;28;19964;-66
2022/03/20 11:59:05;;;;;;;;;;;10.20;60.10;;;;;;5048379;28;19923;-66
2022/03/20 12:01:50;;;;;;;;;;;10.30;59.90;;;;;;5050441;28;19916;-64
2022/03/20 12:04:21;;;;;;;;;;;10.40;60.20;;;;;;5048644;28;19959;-68
2022/03/20 12:06:46;;;;;;;;;;;10.40;60.10;;;;;;5049130;28;19917;-67
2022/03/20 12:09:24;;;;;;;;;;;10.40;60.10;;;;;;5048417;28;19962;-67
2022/03/20 12:12:02;;;;;;;;;;;10.50;60.60;;;;;;5048113;28;19917;-68
2022/03/20 12:14:30;;;;;;;;;;;10.50;59.80;;;;;;5045749;28;19999;-65
2022/03/20 12:16:58;;;;;;;;;;;10.60;60.70;;;;;;5047862;28;19935;-67
2022/03/20 12:19:44;;;;;;;;;;;10.60;59.50;;;;;;5049962;28;19913;-67
2022/03/20 12:22:29;;;;;;;;;;;10.60;58.70;;;;;;5049610;28;19921;-67
2022/03/20 12:24:55;;;;;;;;;;;10.70;58.90;;;;;;5048132;28;20305;-68
2022/03/20 12:27:22;;;;;;;;;;;10.70;58.50;;;;;;5047985;28;19913;-67
2022/03/20 12:29:53;;;;;;;;;;;10.70;58.60;;;;;;5048266;28;19971;-67
2022/03/20 12:32:20;;;;;;;;;;;10.70;58.90;;;;;;5045124;28;19917;-67
2022/03/20 12:35:06;;;;;;;;;;;10.80;57.70;;;;;;5081292;28;19914;-66
2022/03/20 12:37:37;;;;;;;;;;;10.90;58.00;;;;;;5046727;28;19921;-64
2022/03/20 12:40:02;;;;;;;;;;;10.90;58.20;;;;;;5047894;28;19956;-65
2022/03/20 12:42:29;;;;;;;;;;;10.90;55.40;;;;;;5050843;28;19997;-67
2022/03/20 12:44:55;;;;;;;;;;;10.90;57.20;;;;;;5052174;28;19916;-66
2022/03/20 12:47:21;;;;;;;;;;;10.90;56.10;;;;;;5052124;28;20402;-67
2022/03/20 12:49:51;;;;;;;;;;;10.90;54.90;;;;;;5052326;28;19951;-66
2022/03/20 12:52:18;;;;;;;;;;;10.90;55.70;;;;;;5054037;28;20015;-64
2022/03/20 12:54:53;;;;;;;;;;;10.70;54.20;;;;;;5040115;28;20317;-64
2022/03/20 12:57:18;;;;;;;;;;;10.70;55.60;;;;;;5048203;28;19927;-67
2022/03/20 12:59:44;;;;;;;;;;;10.60;55.60;;;;;;5052154;28;20004;-66
2022/03/20 13:02:10;;;;;;;;;;;10.70;55.40;;;;;;5052354;28;19913;-66
2022/03/20 13:04:36;;;;;;;;;;;10.70;54.20;;;;;;5053076;28;20046;-67
2022/03/20 13:07:20;;;;;;;;;;;10.70;54.10;;;;;;5052823;28;19992;-65
2022/03/20 13:09:55;;;;;;;;;;;10.70;54.70;;;;;;5052002;28;19916;-67
2022/03/20 13:12:21;;;;;;;;;;;10.80;54.70;;;;;;5048164;28;19998;-67
2022/03/20 13:14:48;;;;;;;;;;;10.80;54.80;;;;;;5051545;28;19956;-66
2022/03/20 13:17:23;;;;;;;;;;;10.80;51.60;;;;;;5051864;28;19913;-63
2022/03/20 13:19:48;;;;;;;;;;;10.90;55.10;;;;;;5051512;28;19988;-66
2022/03/20 13:22:14;;;;;;;;;;;11.00;54.90;;;;;;5053089;28;20016;-64
2022/03/20 13:24:41;;;;;;;;;;;11.00;54.80;;;;;;5051036;28;19976;-66
2022/03/20 13:27:07;;;;;;;;;;;11.20;55.50;;;;;;5051601;28;19919;-66
2022/03/20 13:29:34;;;;;;;;;;;11.20;55.30;;;;;;5050952;28;19920;-66
2022/03/20 13:32:03;;;;;;;;;;;11.20;53.80;;;;;;5051144;28;19944;-64
2022/03/20 13:34:29;;;;;;;;;;;11.20;54.30;;;;;;5052689;28;19920;-66
2022/03/20 13:37:02;;;;;;;;;;;11.30;54.90;;;;;;5050756;28;19917;-66
2022/03/20 13:39:28;;;;;;;;;;;11.50;53.30;;;;;;5050689;28;19935;-67
2022/03/20 13:41:53;;;;;;;;;;;11.50;53.50;;;;;;5051019;28;20662;-66
2022/03/20 13:44:19;;;;;;;;;;;11.50;53.40;;;;;;5050389;28;19916;-65
2022/03/20 13:46:45;;;;;;;;;;;11.50;53.50;;;;;;5050973;28;20734;-66
2022/03/20 13:49:11;;;;;;;;;;;11.50;53.40;;;;;;5051101;28;19916;-65
2022/03/20 13:51:37;;;;;;;;;;;11.60;54.70;;;;;;5050440;28;19916;-66
2022/03/20 13:54:14;;;;;;;;;;;11.60;53.40;;;;;;5050209;28;19952;-66
2022/03/20 13:56:40;;;;;;;;;;;11.70;53.70;;;;;;5050204;28;21365;-67
2022/03/20 13:59:07;;;;;;;;;;;11.80;53.70;;;;;;5050868;28;19913;-66
2022/03/20 14:01:41;;;;;;;;;;;11.80;52.60;;;;;;5052061;28;19939;-65
2022/03/20 14:04:09;;;;;;;;;;;11.80;53.50;;;;;;5050831;28;20213;-66
2022/03/20 14:06:40;;;;;;;;;;;11.80;52.90;;;;;;5049636;28;19916;-67
2022/03/20 14:09:07;;;;;;;;;;;11.80;53.70;;;;;;5049517;28;19916;-66
2022/03/20 14:11:34;;;;;;;;;;;11.80;53.00;;;;;;5050465;28;19947;-67
2022/03/20 14:14:00;;;;;;;;;;;11.70;53.30;;;;;;5050401;28;20432;-67
2022/03/20 14:16:25;;;;;;;;;;;11.80;53.60;;;;;;5052293;28;19948;-66
2022/03/20 14:18:51;;;;;;;;;;;11.80;53.20;;;;;;5050295;28;19913;-67
2022/03/20 14:21:17;;;;;;;;;;;12.00;52.60;;;;;;5049808;28;20009;-66
2022/03/20 14:23:53;;;;;;;;;;;12.10;54.70;;;;;;5049245;28;19916;-65
2022/03/20 14:26:19;;;;;;;;;;;12.10;53.30;;;;;;5047111;28;19923;-67
2022/03/20 14:28:45;;;;;;;;;;;12.00;53.40;;;;;;5050565;28;20008;-65
2022/03/20 14:39:48;;;;;;;;;;;11.90;53.20;;;;;;5037065;28;19994;-67
2022/03/20 14:42:44;;;;;;;;;;;11.90;52.60;;;;;;5033750;28;19917;-66
2022/03/20 14:45:10;;;;;;;;;;;11.90;53.20;;;;;;5032887;28;19996;-65
2022/03/20 14:47:36;;;;;;;;;;;11.90;53.10;;;;;;5037354;28;20128;-66
2022/03/20 14:50:04;;;;;;;;;;;12.10;52.10;;;;;;5038787;28;19982;-66
2022/03/20 14:52:29;;;;;;;;;;;12.10;53.20;;;;;;5032919;28;19913;-65
2022/03/20 14:54:55;;;;;;;;;;;12.10;52.80;;;;;;5035111;28;19917;-66
2022/03/20 14:57:21;;;;;;;;;;;12.10;52.60;;;;;;5032925;28;19996;-66
2022/03/20 14:59:47;;;;;;;;;;;12.20;51.80;;;;;;5035770;28;19959;-68
2022/03/20 15:02:12;;;;;;;;;;;12.20;52.60;;;;;;5035004;28;20401;-65